Terminal Aerodrome Forecast
Issued by NWS

Home | Current Version | Previous Version | Text Only | Print | Product List | Glossary On
Versions: 1 2 3 4 5 6 7 8 9 10 11 12 13 14 15 16 17 18 19 20
827
FTUS43 KJKL 130520
TAFSJS
TAF
KSJS 130520Z 1306/1406 30007G17KT P6SM -SN BKN035 OVC050
      TEMPO 1306/1308 6SM -SN OVC035
     FM130900 31007KT P6SM BKN035
     FM132100 31006KT P6SM SCT040=

USA.gov is the U.S. government's official web portal to all federal, state and local government web resources and services.